sensor_id;sensor_type;location;lat;lon;timestamp;P1;durP1;ratioP1;P2;durP2;ratioP2
16075;SDS011;8142;48.242;11.644;2023-05-18T00:00:39;6.83;;;3.77;;
16075;SDS011;8142;48.242;11.644;2023-05-18T00:03:05;6.83;;;4.00;;
16075;SDS011;8142;48.242;11.644;2023-05-18T00:05:32;5.10;;;3.70;;
16075;SDS011;8142;48.242;11.644;2023-05-18T00:07:58;6.83;;;4.03;;
16075;SDS011;8142;48.242;11.644;2023-05-18T00:10:25;6.20;;;4.17;;
16075;SDS011;8142;48.242;11.644;2023-05-18T00:12:51;6.63;;;3.60;;
16075;SDS011;8142;48.242;11.644;2023-05-18T00:15:17;5.93;;;3.90;;
16075;SDS011;8142;48.242;11.644;2023-05-18T00:17:42;5.57;;;3.87;;
16075;SDS011;8142;48.242;11.644;2023-05-18T00:20:10;5.77;;;3.73;;
16075;SDS011;8142;48.242;11.644;2023-05-18T00:22:36;7.73;;;3.80;;
16075;SDS011;8142;48.242;11.644;2023-05-18T00:25:06;7.13;;;3.90;;
16075;SDS011;8142;48.242;11.644;2023-05-18T00:27:33;7.00;;;4.43;;
16075;SDS011;8142;48.242;11.644;2023-05-18T00:29:58;7.43;;;4.30;;
16075;SDS011;8142;48.242;11.644;2023-05-18T00:32:25;9.30;;;4.43;;
16075;SDS011;8142;48.242;11.644;2023-05-18T00:34:51;8.73;;;4.60;;
16075;SDS011;8142;48.242;11.644;2023-05-18T00:37:16;7.30;;;4.63;;
16075;SDS011;8142;48.242;11.644;2023-05-18T00:39:42;7.57;;;4.30;;
16075;SDS011;8142;48.242;11.644;2023-05-18T00:42:08;7.50;;;4.63;;
16075;SDS011;8142;48.242;11.644;2023-05-18T00:44:34;7.33;;;4.80;;
16075;SDS011;8142;48.242;11.644;2023-05-18T00:47:00;8.60;;;4.47;;
16075;SDS011;8142;48.242;11.644;2023-05-18T00:49:26;8.47;;;4.30;;
16075;SDS011;8142;48.242;11.644;2023-05-18T00:51:52;8.47;;;4.83;;
16075;SDS011;8142;48.242;11.644;2023-05-18T00:54:19;9.83;;;4.53;;
16075;SDS011;8142;48.242;11.644;2023-05-18T00:56:46;7.73;;;4.43;;
16075;SDS011;8142;48.242;11.644;2023-05-18T00:59:12;8.53;;;4.77;;
16075;SDS011;8142;48.242;11.644;2023-05-18T01:01:39;9.47;;;4.70;;
16075;SDS011;8142;48.242;11.644;2023-05-18T01:04:10;8.10;;;4.50;;
16075;SDS011;8142;48.242;11.644;2023-05-18T01:06:39;7.00;;;4.40;;
16075;SDS011;8142;48.242;11.644;2023-05-18T01:09:06;8.33;;;4.43;;
16075;SDS011;8142;48.242;11.644;2023-05-18T01:20:36;7.83;;;4.03;;
16075;SDS011;8142;48.242;11.644;2023-05-18T01:23:28;6.33;;;4.40;;
16075;SDS011;8142;48.242;11.644;2023-05-18T01:28:31;7.17;;;4.33;;
16075;SDS011;8142;48.242;11.644;2023-05-18T01:30:58;8.57;;;4.67;;
16075;SDS011;8142;48.242;11.644;2023-05-18T01:33:24;9.63;;;4.60;;
16075;SDS011;8142;48.242;11.644;2023-05-18T01:35:50;6.13;;;4.20;;
16075;SDS011;8142;48.242;11.644;2023-05-18T01:38:18;9.80;;;4.20;;
16075;SDS011;8142;48.242;11.644;2023-05-18T01:41:07;8.77;;;4.40;;
16075;SDS011;8142;48.242;11.644;2023-05-18T01:49:38;6.87;;;4.30;;
16075;SDS011;8142;48.242;11.644;2023-05-18T01:52:28;9.67;;;4.30;;
16075;SDS011;8142;48.242;11.644;2023-05-18T01:55:00;10.77;;;4.27;;
16075;SDS011;8142;48.242;11.644;2023-05-18T01:57:28;6.33;;;4.10;;
16075;SDS011;8142;48.242;11.644;2023-05-18T01:59:59;8.90;;;4.00;;
16075;SDS011;8142;48.242;11.644;2023-05-18T02:02:26;7.53;;;4.20;;
16075;SDS011;8142;48.242;11.644;2023-05-18T02:04:52;8.83;;;4.20;;
16075;SDS011;8142;48.242;11.644;2023-05-18T02:07:18;8.97;;;4.37;;
16075;SDS011;8142;48.242;11.644;2023-05-18T02:09:44;6.27;;;4.60;;
16075;SDS011;8142;48.242;11.644;2023-05-18T02:12:10;7.83;;;4.50;;
16075;SDS011;8142;48.242;11.644;2023-05-18T02:14:36;7.03;;;4.07;;
16075;SDS011;8142;48.242;11.644;2023-05-18T02:17:02;7.63;;;4.10;;
16075;SDS011;8142;48.242;11.644;2023-05-18T02:19:28;7.97;;;4.60;;
16075;SDS011;8142;48.242;11.644;2023-05-18T02:21:57;8.37;;;4.30;;
16075;SDS011;8142;48.242;11.644;2023-05-18T02:24:23;9.07;;;4.20;;
16075;SDS011;8142;48.242;11.644;2023-05-18T02:26:50;6.13;;;4.00;;
16075;SDS011;8142;48.242;11.644;2023-05-18T02:29:16;9.97;;;4.50;;
16075;SDS011;8142;48.242;11.644;2023-05-18T02:31:42;7.17;;;4.47;;
16075;SDS011;8142;48.242;11.644;2023-05-18T02:34:07;6.93;;;4.50;;
16075;SDS011;8142;48.242;11.644;2023-05-18T02:36:34;9.57;;;4.40;;
16075;SDS011;8142;48.242;11.644;2023-05-18T02:39:07;9.33;;;4.70;;
16075;SDS011;8142;48.242;11.644;2023-05-18T02:41:35;8.47;;;4.10;;
16075;SDS011;8142;48.242;11.644;2023-05-18T02:44:01;7.83;;;4.20;;
16075;SDS011;8142;48.242;11.644;2023-05-18T02:46:27;8.97;;;4.47;;
16075;SDS011;8142;48.242;11.644;2023-05-18T02:48:54;9.30;;;4.77;;
16075;SDS011;8142;48.242;11.644;2023-05-18T02:51:19;7.63;;;4.00;;
16075;SDS011;8142;48.242;11.644;2023-05-18T02:53:46;8.63;;;4.67;;
16075;SDS011;8142;48.242;11.644;2023-05-18T02:56:12;8.47;;;4.47;;
16075;SDS011;8142;48.242;11.644;2023-05-18T02:58:38;8.70;;;4.53;;
16075;SDS011;8142;48.242;11.644;2023-05-18T03:01:04;10.03;;;4.50;;
16075;SDS011;8142;48.242;11.644;2023-05-18T03:03:33;6.90;;;4.33;;
16075;SDS011;8142;48.242;11.644;2023-05-18T03:05:59;7.30;;;4.80;;
16075;SDS011;8142;48.242;11.644;2023-05-18T03:08:28;7.40;;;4.80;;
16075;SDS011;8142;48.242;11.644;2023-05-18T03:10:55;8.33;;;4.40;;
16075;SDS011;8142;48.242;11.644;2023-05-18T03:13:22;9.83;;;5.13;;
16075;SDS011;8142;48.242;11.644;2023-05-18T03:15:48;8.40;;;4.70;;
16075;SDS011;8142;48.242;11.644;2023-05-18T03:18:15;8.43;;;4.80;;
16075;SDS011;8142;48.242;11.644;2023-05-18T03:20:44;8.57;;;4.70;;
16075;SDS011;8142;48.242;11.644;2023-05-18T03:23:10;8.50;;;4.90;;
16075;SDS011;8142;48.242;11.644;2023-05-18T03:25:36;8.20;;;4.83;;
16075;SDS011;8142;48.242;11.644;2023-05-18T03:28:02;10.90;;;5.20;;
16075;SDS011;8142;48.242;11.644;2023-05-18T03:30:30;7.40;;;4.87;;
16075;SDS011;8142;48.242;11.644;2023-05-18T03:32:59;10.53;;;5.43;;
16075;SDS011;8142;48.242;11.644;2023-05-18T03:35:26;10.87;;;5.10;;
16075;SDS011;8142;48.242;11.644;2023-05-18T03:37:52;9.27;;;5.30;;
16075;SDS011;8142;48.242;11.644;2023-05-18T03:40:18;9.17;;;5.73;;
16075;SDS011;8142;48.242;11.644;2023-05-18T03:42:44;7.63;;;5.47;;
16075;SDS011;8142;48.242;11.644;2023-05-18T03:45:10;8.63;;;5.80;;
16075;SDS011;8142;48.242;11.644;2023-05-18T03:47:37;8.57;;;5.70;;
16075;SDS011;8142;48.242;11.644;2023-05-18T03:50:03;8.93;;;5.53;;
16075;SDS011;8142;48.242;11.644;2023-05-18T03:52:30;9.20;;;5.53;;
16075;SDS011;8142;48.242;11.644;2023-05-18T03:55:01;8.63;;;5.60;;
16075;SDS011;8142;48.242;11.644;2023-05-18T03:57:28;11.00;;;6.17;;
16075;SDS011;8142;48.242;11.644;2023-05-18T03:59:55;11.10;;;5.77;;
16075;SDS011;8142;48.242;11.644;2023-05-18T04:02:21;10.10;;;5.93;;
16075;SDS011;8142;48.242;11.644;2023-05-18T04:04:47;11.50;;;6.30;;
16075;SDS011;8142;48.242;11.644;2023-05-18T04:07:13;8.53;;;5.50;;
16075;SDS011;8142;48.242;11.644;2023-05-18T04:09:42;13.10;;;6.03;;
16075;SDS011;8142;48.242;11.644;2023-05-18T04:12:09;10.43;;;6.20;;
16075;SDS011;8142;48.242;11.644;2023-05-18T04:14:35;8.60;;;5.90;;
16075;SDS011;8142;48.242;11.644;2023-05-18T04:17:01;10.27;;;6.13;;
16075;SDS011;8142;48.242;11.644;2023-05-18T04:19:31;14.00;;;6.77;;
16075;SDS011;8142;48.242;11.644;2023-05-18T04:21:58;11.20;;;6.90;;
16075;SDS011;8142;48.242;11.644;2023-05-18T04:24:24;10.13;;;7.10;;
16075;SDS011;8142;48.242;11.644;2023-05-18T04:26:53;11.70;;;7.37;;
16075;SDS011;8142;48.242;11.644;2023-05-18T04:29:19;10.23;;;6.50;;
16075;SDS011;8142;48.242;11.644;2023-05-18T04:31:45;10.70;;;6.50;;
16075;SDS011;8142;48.242;11.644;2023-05-18T04:34:14;11.20;;;6.80;;
16075;SDS011;8142;48.242;11.644;2023-05-18T04:36:42;11.43;;;6.80;;
16075;SDS011;8142;48.242;11.644;2023-05-18T04:39:09;12.17;;;6.53;;
16075;SDS011;8142;48.242;11.644;2023-05-18T04:41:35;11.03;;;6.77;;
16075;SDS011;8142;48.242;11.644;2023-05-18T04:44:01;9.40;;;6.73;;
16075;SDS011;8142;48.242;11.644;2023-05-18T04:46:28;9.07;;;6.30;;
16075;SDS011;8142;48.242;11.644;2023-05-18T04:48:54;10.30;;;6.47;;
16075;SDS011;8142;48.242;11.644;2023-05-18T04:51:22;11.53;;;6.47;;
16075;SDS011;8142;48.242;11.644;2023-05-18T04:53:49;13.17;;;6.50;;
16075;SDS011;8142;48.242;11.644;2023-05-18T04:56:16;11.63;;;6.70;;
16075;SDS011;8142;48.242;11.644;2023-05-18T04:58:42;9.33;;;6.30;;
16075;SDS011;8142;48.242;11.644;2023-05-18T05:01:12;10.53;;;6.73;;
16075;SDS011;8142;48.242;11.644;2023-05-18T05:03:40;9.43;;;6.30;;
16075;SDS011;8142;48.242;11.644;2023-05-18T05:06:07;10.07;;;6.70;;
16075;SDS011;8142;48.242;11.644;2023-05-18T05:08:33;9.40;;;6.50;;
16075;SDS011;8142;48.242;11.644;2023-05-18T05:10:59;9.90;;;6.70;;
16075;SDS011;8142;48.242;11.644;2023-05-18T05:13:25;10.83;;;6.83;;
16075;SDS011;8142;48.242;11.644;2023-05-18T05:15:52;11.23;;;6.70;;
16075;SDS011;8142;48.242;11.644;2023-05-18T05:18:18;9.83;;;6.27;;
16075;SDS011;8142;48.242;11.644;2023-05-18T05:20:44;9.50;;;6.27;;
16075;SDS011;8142;48.242;11.644;2023-05-18T05:23:09;9.00;;;6.40;;
16075;SDS011;8142;48.242;11.644;2023-05-18T05:25:35;8.87;;;6.40;;
16075;SDS011;8142;48.242;11.644;2023-05-18T05:28:01;11.83;;;6.90;;
16075;SDS011;8142;48.242;11.644;2023-05-18T05:30:27;8.33;;;6.00;;
16075;SDS011;8142;48.242;11.644;2023-05-18T05:32:53;10.77;;;6.53;;
16075;SDS011;8142;48.242;11.644;2023-05-18T05:35:19;9.57;;;6.17;;
16075;SDS011;8142;48.242;11.644;2023-05-18T05:37:45;8.47;;;5.97;;
16075;SDS011;8142;48.242;11.644;2023-05-18T05:40:11;9.40;;;5.97;;
16075;SDS011;8142;48.242;11.644;2023-05-18T05:42:37;7.17;;;5.93;;
16075;SDS011;8142;48.242;11.644;2023-05-18T05:45:03;9.33;;;5.87;;
16075;SDS011;8142;48.242;11.644;2023-05-18T05:47:30;11.13;;;5.67;;
16075;SDS011;8142;48.242;11.644;2023-05-18T05:49:56;8.63;;;4.93;;
16075;SDS011;8142;48.242;11.644;2023-05-18T05:52:21;7.77;;;4.90;;
16075;SDS011;8142;48.242;11.644;2023-05-18T05:54:47;9.37;;;5.20;;
16075;SDS011;8142;48.242;11.644;2023-05-18T05:57:13;7.17;;;4.80;;
16075;SDS011;8142;48.242;11.644;2023-05-18T05:59:39;8.63;;;4.90;;
16075;SDS011;8142;48.242;11.644;2023-05-18T06:02:05;6.50;;;4.93;;
16075;SDS011;8142;48.242;11.644;2023-05-18T06:04:32;6.87;;;4.70;;
16075;SDS011;8142;48.242;11.644;2023-05-18T06:06:58;7.03;;;4.77;;
16075;SDS011;8142;48.242;11.644;2023-05-18T06:09:23;5.47;;;4.37;;
16075;SDS011;8142;48.242;11.644;2023-05-18T06:11:49;7.17;;;4.53;;
16075;SDS011;8142;48.242;11.644;2023-05-18T06:14:17;5.30;;;4.47;;
16075;SDS011;8142;48.242;11.644;2023-05-18T06:16:42;7.07;;;4.43;;
16075;SDS011;8142;48.242;11.644;2023-05-18T06:19:08;6.23;;;4.20;;
16075;SDS011;8142;48.242;11.644;2023-05-18T06:21:34;6.70;;;4.57;;
16075;SDS011;8142;48.242;11.644;2023-05-18T06:24:00;9.03;;;5.10;;
16075;SDS011;8142;48.242;11.644;2023-05-18T06:26:28;8.40;;;4.90;;
16075;SDS011;8142;48.242;11.644;2023-05-18T06:28:54;7.23;;;4.73;;
16075;SDS011;8142;48.242;11.644;2023-05-18T06:31:20;9.80;;;4.97;;
16075;SDS011;8142;48.242;11.644;2023-05-18T06:33:46;5.77;;;4.80;;
16075;SDS011;8142;48.242;11.644;2023-05-18T06:36:12;7.57;;;4.50;;
16075;SDS011;8142;48.242;11.644;2023-05-18T06:38:39;10.87;;;4.77;;
16075;SDS011;8142;48.242;11.644;2023-05-18T06:41:05;6.10;;;4.97;;
16075;SDS011;8142;48.242;11.644;2023-05-18T06:43:31;9.63;;;4.63;;
16075;SDS011;8142;48.242;11.644;2023-05-18T06:45:56;7.13;;;4.50;;
16075;SDS011;8142;48.242;11.644;2023-05-18T06:48:24;7.20;;;4.57;;
16075;SDS011;8142;48.242;11.644;2023-05-18T06:50:51;7.87;;;4.73;;
16075;SDS011;8142;48.242;11.644;2023-05-18T06:53:18;6.47;;;4.33;;
16075;SDS011;8142;48.242;11.644;2023-05-18T06:55:43;6.37;;;4.30;;
16075;SDS011;8142;48.242;11.644;2023-05-18T06:58:09;7.33;;;4.50;;
16075;SDS011;8142;48.242;11.644;2023-05-18T07:00:36;7.47;;;4.37;;
16075;SDS011;8142;48.242;11.644;2023-05-18T07:03:03;7.37;;;4.17;;
16075;SDS011;8142;48.242;11.644;2023-05-18T07:05:29;6.37;;;4.90;;
16075;SDS011;8142;48.242;11.644;2023-05-18T07:07:55;6.97;;;4.77;;
16075;SDS011;8142;48.242;11.644;2023-05-18T07:10:21;9.10;;;4.87;;
16075;SDS011;8142;48.242;11.644;2023-05-18T07:12:47;7.33;;;4.70;;
16075;SDS011;8142;48.242;11.644;2023-05-18T07:15:14;7.90;;;4.67;;
16075;SDS011;8142;48.242;11.644;2023-05-18T07:17:40;6.13;;;4.60;;
16075;SDS011;8142;48.242;11.644;2023-05-18T07:20:06;6.63;;;4.47;;
16075;SDS011;8142;48.242;11.644;2023-05-18T07:22:33;6.87;;;4.77;;
16075;SDS011;8142;48.242;11.644;2023-05-18T07:24:59;7.30;;;4.83;;
16075;SDS011;8142;48.242;11.644;2023-05-18T07:27:26;7.10;;;4.80;;
16075;SDS011;8142;48.242;11.644;2023-05-18T07:29:52;7.97;;;4.67;;
16075;SDS011;8142;48.242;11.644;2023-05-18T07:32:18;7.30;;;5.07;;
16075;SDS011;8142;48.242;11.644;2023-05-18T07:34:44;7.67;;;4.80;;
16075;SDS011;8142;48.242;11.644;2023-05-18T07:37:11;5.67;;;4.33;;
16075;SDS011;8142;48.242;11.644;2023-05-18T07:39:37;9.43;;;5.73;;
16075;SDS011;8142;48.242;11.644;2023-05-18T07:42:03;7.87;;;4.73;;
16075;SDS011;8142;48.242;11.644;2023-05-18T07:44:30;9.07;;;4.63;;
16075;SDS011;8142;48.242;11.644;2023-05-18T07:46:56;9.83;;;4.80;;
16075;SDS011;8142;48.242;11.644;2023-05-18T07:49:22;10.20;;;5.13;;
16075;SDS011;8142;48.242;11.644;2023-05-18T07:51:49;7.67;;;4.57;;
16075;SDS011;8142;48.242;11.644;2023-05-18T07:54:16;9.13;;;4.80;;
16075;SDS011;8142;48.242;11.644;2023-05-18T07:56:41;7.17;;;4.70;;
16075;SDS011;8142;48.242;11.644;2023-05-18T07:59:08;10.80;;;5.17;;
16075;SDS011;8142;48.242;11.644;2023-05-18T08:01:35;11.90;;;4.67;;
16075;SDS011;8142;48.242;11.644;2023-05-18T08:04:02;9.67;;;4.60;;
16075;SDS011;8142;48.242;11.644;2023-05-18T08:06:28;8.80;;;4.13;;
16075;SDS011;8142;48.242;11.644;2023-05-18T08:08:56;8.40;;;4.00;;
16075;SDS011;8142;48.242;11.644;2023-05-18T08:11:22;8.03;;;4.13;;
16075;SDS011;8142;48.242;11.644;2023-05-18T08:13:48;7.90;;;3.90;;
16075;SDS011;8142;48.242;11.644;2023-05-18T08:16:14;9.53;;;4.30;;
16075;SDS011;8142;48.242;11.644;2023-05-18T08:18:40;9.23;;;3.70;;
16075;SDS011;8142;48.242;11.644;2023-05-18T08:21:06;8.27;;;3.90;;
16075;SDS011;8142;48.242;11.644;2023-05-18T08:23:36;7.43;;;3.90;;
16075;SDS011;8142;48.242;11.644;2023-05-18T08:26:04;10.03;;;4.03;;
16075;SDS011;8142;48.242;11.644;2023-05-18T08:28:30;9.50;;;4.10;;
16075;SDS011;8142;48.242;11.644;2023-05-18T08:30:56;10.30;;;3.80;;
16075;SDS011;8142;48.242;11.644;2023-05-18T08:33:22;11.63;;;3.90;;
16075;SDS011;8142;48.242;11.644;2023-05-18T08:35:48;9.00;;;3.57;;
16075;SDS011;8142;48.242;11.644;2023-05-18T08:38:15;7.40;;;3.87;;
16075;SDS011;8142;48.242;11.644;2023-05-18T08:43:35;6.43;;;3.63;;
16075;SDS011;8142;48.242;11.644;2023-05-18T08:46:03;8.40;;;3.53;;
16075;SDS011;8142;48.242;11.644;2023-05-18T08:48:35;7.73;;;3.30;;
16075;SDS011;8142;48.242;11.644;2023-05-18T08:51:01;7.97;;;3.70;;
16075;SDS011;8142;48.242;11.644;2023-05-18T08:53:31;6.93;;;3.50;;
16075;SDS011;8142;48.242;11.644;2023-05-18T08:55:58;10.17;;;3.93;;
16075;SDS011;8142;48.242;11.644;2023-05-18T08:58:31;7.37;;;3.50;;
16075;SDS011;8142;48.242;11.644;2023-05-18T09:00:59;7.07;;;3.70;;
16075;SDS011;8142;48.242;11.644;2023-05-18T09:03:26;8.93;;;3.70;;
16075;SDS011;8142;48.242;11.644;2023-05-18T09:05:53;8.47;;;3.37;;
16075;SDS011;8142;48.242;11.644;2023-05-18T09:08:21;7.77;;;3.37;;
16075;SDS011;8142;48.242;11.644;2023-05-18T09:10:47;8.07;;;3.67;;
16075;SDS011;8142;48.242;11.644;2023-05-18T09:13:14;11.00;;;3.87;;
16075;SDS011;8142;48.242;11.644;2023-05-18T09:15:45;11.37;;;3.53;;
16075;SDS011;8142;48.242;11.644;2023-05-18T09:18:11;6.83;;;3.63;;
16075;SDS011;8142;48.242;11.644;2023-05-18T09:20:37;6.63;;;3.30;;
16075;SDS011;8142;48.242;11.644;2023-05-18T09:23:03;6.67;;;3.47;;
16075;SDS011;8142;48.242;11.644;2023-05-18T09:25:31;7.33;;;3.17;;
16075;SDS011;8142;48.242;11.644;2023-05-18T09:27:59;9.73;;;3.57;;
16075;SDS011;8142;48.242;11.644;2023-05-18T09:30:28;6.50;;;3.40;;
16075;SDS011;8142;48.242;11.644;2023-05-18T09:32:54;6.50;;;3.40;;
16075;SDS011;8142;48.242;11.644;2023-05-18T09:35:20;6.67;;;3.20;;
16075;SDS011;8142;48.242;11.644;2023-05-18T09:37:49;6.43;;;3.30;;
16075;SDS011;8142;48.242;11.644;2023-05-18T09:40:17;5.40;;;3.13;;
16075;SDS011;8142;48.242;11.644;2023-05-18T09:42:44;8.77;;;3.40;;
16075;SDS011;8142;48.242;11.644;2023-05-18T09:47:44;6.50;;;3.27;;
16075;SDS011;8142;48.242;11.644;2023-05-18T09:50:10;8.77;;;3.47;;
16075;SDS011;8142;48.242;11.644;2023-05-18T09:52:43;12.03;;;3.70;;
16075;SDS011;8142;48.242;11.644;2023-05-18T09:55:10;10.97;;;3.50;;
16075;SDS011;8142;48.242;11.644;2023-05-18T09:57:38;7.33;;;3.40;;
16075;SDS011;8142;48.242;11.644;2023-05-18T10:00:07;12.97;;;3.87;;
16075;SDS011;8142;48.242;11.644;2023-05-18T10:02:39;9.40;;;3.70;;
16075;SDS011;8142;48.242;11.644;2023-05-18T10:05:17;9.23;;;3.33;;
16075;SDS011;8142;48.242;11.644;2023-05-18T10:07:46;5.67;;;3.50;;
16075;SDS011;8142;48.242;11.644;2023-05-18T10:10:16;6.17;;;3.47;;
16075;SDS011;8142;48.242;11.644;2023-05-18T10:12:44;9.60;;;3.70;;
16075;SDS011;8142;48.242;11.644;2023-05-18T10:15:14;6.13;;;3.50;;
16075;SDS011;8142;48.242;11.644;2023-05-18T10:17:41;6.87;;;3.50;;
16075;SDS011;8142;48.242;11.644;2023-05-18T10:20:09;6.33;;;3.50;;
16075;SDS011;8142;48.242;11.644;2023-05-18T10:22:35;8.13;;;3.87;;
16075;SDS011;8142;48.242;11.644;2023-05-18T10:25:02;8.40;;;4.03;;
16075;SDS011;8142;48.242;11.644;2023-05-18T10:27:32;7.67;;;3.23;;
16075;SDS011;8142;48.242;11.644;2023-05-18T10:29:59;9.23;;;3.33;;
16075;SDS011;8142;48.242;11.644;2023-05-18T10:32:29;6.03;;;3.17;;
16075;SDS011;8142;48.242;11.644;2023-05-18T10:34:56;8.77;;;3.10;;
16075;SDS011;8142;48.242;11.644;2023-05-18T10:37:24;7.77;;;3.20;;
16075;SDS011;8142;48.242;11.644;2023-05-18T10:39:54;9.13;;;3.30;;
16075;SDS011;8142;48.242;11.644;2023-05-18T10:42:23;7.00;;;3.23;;
16075;SDS011;8142;48.242;11.644;2023-05-18T10:44:53;7.67;;;3.50;;
16075;SDS011;8142;48.242;11.644;2023-05-18T10:47:25;5.77;;;2.73;;
16075;SDS011;8142;48.242;11.644;2023-05-18T10:49:52;9.00;;;3.20;;
16075;SDS011;8142;48.242;11.644;2023-05-18T10:52:19;7.93;;;3.50;;
16075;SDS011;8142;48.242;11.644;2023-05-18T10:54:48;6.10;;;2.80;;
16075;SDS011;8142;48.242;11.644;2023-05-18T10:57:15;6.37;;;3.30;;
16075;SDS011;8142;48.242;11.644;2023-05-18T10:59:47;5.43;;;3.00;;
16075;SDS011;8142;48.242;11.644;2023-05-18T11:02:16;10.00;;;3.30;;
16075;SDS011;8142;48.242;11.644;2023-05-18T11:04:44;8.07;;;3.00;;
16075;SDS011;8142;48.242;11.644;2023-05-18T11:07:11;5.90;;;2.90;;
16075;SDS011;8142;48.242;11.644;2023-05-18T11:09:42;8.07;;;2.97;;
16075;SDS011;8142;48.242;11.644;2023-05-18T11:12:10;9.50;;;2.73;;
16075;SDS011;8142;48.242;11.644;2023-05-18T11:14:39;9.17;;;3.73;;
16075;SDS011;8142;48.242;11.644;2023-05-18T11:17:22;7.80;;;3.50;;
16075;SDS011;8142;48.242;11.644;2023-05-18T11:27:50;5.73;;;2.90;;
16075;SDS011;8142;48.242;11.644;2023-05-18T11:30:27;8.57;;;3.00;;
16075;SDS011;8142;48.242;11.644;2023-05-18T11:41:29;5.80;;;2.90;;
16075;SDS011;8142;48.242;11.644;2023-05-18T11:46:59;7.63;;;3.20;;
16075;SDS011;8142;48.242;11.644;2023-05-18T11:49:30;6.37;;;3.17;;
16075;SDS011;8142;48.242;11.644;2023-05-18T11:52:01;7.17;;;2.87;;
16075;SDS011;8142;48.242;11.644;2023-05-18T11:54:39;7.83;;;3.40;;
16075;SDS011;8142;48.242;11.644;2023-05-18T11:57:11;9.37;;;3.00;;
16075;SDS011;8142;48.242;11.644;2023-05-18T11:59:43;5.97;;;2.80;;
16075;SDS011;8142;48.242;11.644;2023-05-18T12:02:10;10.30;;;4.77;;
16075;SDS011;8142;48.242;11.644;2023-05-18T12:04:41;10.00;;;4.10;;
16075;SDS011;8142;48.242;11.644;2023-05-18T12:07:12;7.13;;;3.17;;
16075;SDS011;8142;48.242;11.644;2023-05-18T12:09:41;8.87;;;3.73;;
16075;SDS011;8142;48.242;11.644;2023-05-18T12:12:08;7.83;;;3.23;;
16075;SDS011;8142;48.242;11.644;2023-05-18T12:14:42;8.17;;;3.10;;
16075;SDS011;8142;48.242;11.644;2023-05-18T12:17:09;7.43;;;3.90;;
16075;SDS011;8142;48.242;11.644;2023-05-18T12:19:42;7.67;;;3.17;;
16075;SDS011;8142;48.242;11.644;2023-05-18T12:22:09;6.50;;;3.30;;
16075;SDS011;8142;48.242;11.644;2023-05-18T12:24:36;4.57;;;3.20;;
16075;SDS011;8142;48.242;11.644;2023-05-18T12:27:07;4.77;;;2.70;;
16075;SDS011;8142;48.242;11.644;2023-05-18T12:29:38;6.77;;;2.80;;
16075;SDS011;8142;48.242;11.644;2023-05-18T12:32:05;9.40;;;3.00;;
16075;SDS011;8142;48.242;11.644;2023-05-18T12:34:35;8.53;;;3.40;;
16075;SDS011;8142;48.242;11.644;2023-05-18T12:37:02;4.63;;;2.70;;
16075;SDS011;8142;48.242;11.644;2023-05-18T12:39:28;6.30;;;3.10;;
16075;SDS011;8142;48.242;11.644;2023-05-18T12:42:06;5.43;;;2.93;;
16075;SDS011;8142;48.242;11.644;2023-05-18T12:44:43;6.27;;;2.73;;
16075;SDS011;8142;48.242;11.644;2023-05-18T12:47:12;5.03;;;3.03;;
16075;SDS011;8142;48.242;11.644;2023-05-18T12:49:39;4.93;;;3.00;;
16075;SDS011;8142;48.242;11.644;2023-05-18T12:52:08;6.07;;;2.90;;
16075;SDS011;8142;48.242;11.644;2023-05-18T12:54:36;7.27;;;3.03;;
16075;SDS011;8142;48.242;11.644;2023-05-18T12:57:14;7.07;;;2.80;;
16075;SDS011;8142;48.242;11.644;2023-05-18T12:59:47;5.50;;;2.60;;
16075;SDS011;8142;48.242;11.644;2023-05-18T13:05:09;6.83;;;2.90;;
16075;SDS011;8142;48.242;11.644;2023-05-18T13:07:39;8.73;;;2.60;;
16075;SDS011;8142;48.242;11.644;2023-05-18T13:10:09;4.37;;;2.50;;
16075;SDS011;8142;48.242;11.644;2023-05-18T13:12:47;6.53;;;2.50;;
16075;SDS011;8142;48.242;11.644;2023-05-18T13:15:23;4.13;;;2.60;;
16075;SDS011;8142;48.242;11.644;2023-05-18T13:18:02;7.67;;;2.80;;
16075;SDS011;8142;48.242;11.644;2023-05-18T13:23:13;6.70;;;3.17;;
16075;SDS011;8142;48.242;11.644;2023-05-18T13:25:41;4.00;;;2.67;;
16075;SDS011;8142;48.242;11.644;2023-05-18T13:28:08;7.13;;;2.90;;
16075;SDS011;8142;48.242;11.644;2023-05-18T13:30:36;6.57;;;2.43;;
16075;SDS011;8142;48.242;11.644;2023-05-18T13:33:03;8.43;;;2.87;;
16075;SDS011;8142;48.242;11.644;2023-05-18T13:35:30;6.70;;;2.67;;
16075;SDS011;8142;48.242;11.644;2023-05-18T13:37:55;8.47;;;2.60;;
16075;SDS011;8142;48.242;11.644;2023-05-18T13:40:21;6.43;;;3.00;;
16075;SDS011;8142;48.242;11.644;2023-05-18T13:42:49;5.63;;;2.80;;
16075;SDS011;8142;48.242;11.644;2023-05-18T13:45:16;5.90;;;2.77;;
16075;SDS011;8142;48.242;11.644;2023-05-18T13:47:42;4.77;;;3.33;;
16075;SDS011;8142;48.242;11.644;2023-05-18T13:50:09;6.40;;;3.10;;
16075;SDS011;8142;48.242;11.644;2023-05-18T13:52:35;8.90;;;4.30;;
16075;SDS011;8142;48.242;11.644;2023-05-18T13:55:05;9.77;;;3.83;;
16075;SDS011;8142;48.242;11.644;2023-05-18T13:57:32;9.80;;;4.50;;
16075;SDS011;8142;48.242;11.644;2023-05-18T13:59:58;7.57;;;3.40;;
16075;SDS011;8142;48.242;11.644;2023-05-18T14:02:28;7.13;;;2.60;;
16075;SDS011;8142;48.242;11.644;2023-05-18T14:04:54;6.53;;;3.23;;
16075;SDS011;8142;48.242;11.644;2023-05-18T14:07:21;4.77;;;2.80;;
16075;SDS011;8142;48.242;11.644;2023-05-18T14:09:48;10.37;;;3.40;;
16075;SDS011;8142;48.242;11.644;2023-05-18T14:12:14;6.37;;;3.20;;
16075;SDS011;8142;48.242;11.644;2023-05-18T14:14:40;6.33;;;2.83;;
16075;SDS011;8142;48.242;11.644;2023-05-18T14:17:10;5.37;;;3.37;;
16075;SDS011;8142;48.242;11.644;2023-05-18T14:19:37;8.47;;;3.47;;
16075;SDS011;8142;48.242;11.644;2023-05-18T14:22:04;5.77;;;2.80;;
16075;SDS011;8142;48.242;11.644;2023-05-18T14:24:30;7.87;;;3.63;;
16075;SDS011;8142;48.242;11.644;2023-05-18T14:26:56;9.93;;;3.43;;
16075;SDS011;8142;48.242;11.644;2023-05-18T14:29:22;6.27;;;2.90;;
16075;SDS011;8142;48.242;11.644;2023-05-18T14:31:48;7.57;;;2.83;;
16075;SDS011;8142;48.242;11.644;2023-05-18T14:34:14;5.23;;;2.87;;
16075;SDS011;8142;48.242;11.644;2023-05-18T14:36:40;5.60;;;2.83;;
16075;SDS011;8142;48.242;11.644;2023-05-18T14:39:06;9.23;;;2.87;;
16075;SDS011;8142;48.242;11.644;2023-05-18T14:41:32;5.53;;;3.10;;
16075;SDS011;8142;48.242;11.644;2023-05-18T14:43:58;4.83;;;2.47;;
16075;SDS011;8142;48.242;11.644;2023-05-18T14:46:24;5.83;;;2.83;;
16075;SDS011;8142;48.242;11.644;2023-05-18T14:48:50;4.43;;;2.57;;
16075;SDS011;8142;48.242;11.644;2023-05-18T14:51:16;7.73;;;2.83;;
16075;SDS011;8142;48.242;11.644;2023-05-18T14:53:42;6.87;;;2.87;;
16075;SDS011;8142;48.242;11.644;2023-05-18T14:56:08;6.70;;;2.60;;
16075;SDS011;8142;48.242;11.644;2023-05-18T14:58:34;9.37;;;3.10;;
16075;SDS011;8142;48.242;11.644;2023-05-18T15:01:01;4.33;;;2.90;;
16075;SDS011;8142;48.242;11.644;2023-05-18T15:03:27;6.03;;;2.67;;
16075;SDS011;8142;48.242;11.644;2023-05-18T15:05:53;7.20;;;3.10;;
16075;SDS011;8142;48.242;11.644;2023-05-18T15:08:18;6.60;;;2.80;;
16075;SDS011;8142;48.242;11.644;2023-05-18T15:10:45;7.10;;;2.77;;
16075;SDS011;8142;48.242;11.644;2023-05-18T15:13:11;4.43;;;2.77;;
16075;SDS011;8142;48.242;11.644;2023-05-18T15:15:36;5.60;;;2.20;;
16075;SDS011;8142;48.242;11.644;2023-05-18T15:18:02;5.00;;;2.10;;
16075;SDS011;8142;48.242;11.644;2023-05-18T15:20:28;4.97;;;2.13;;
16075;SDS011;8142;48.242;11.644;2023-05-18T15:22:54;4.53;;;2.13;;
16075;SDS011;8142;48.242;11.644;2023-05-18T15:25:20;2.93;;;2.03;;
16075;SDS011;8142;48.242;11.644;2023-05-18T15:27:46;3.80;;;2.30;;
16075;SDS011;8142;48.242;11.644;2023-05-18T15:30:13;4.97;;;2.23;;
16075;SDS011;8142;48.242;11.644;2023-05-18T15:32:39;8.33;;;2.47;;
16075;SDS011;8142;48.242;11.644;2023-05-18T15:35:06;3.53;;;2.27;;